sensor_id;sensor_type;location;lat;lon;timestamp;P1;durP1;ratioP1;P2;durP2;ratioP2
3922;SDS011;1976;51.694;6.256;2023-05-14T00:01:15;9.07;;;6.93;;
3922;SDS011;1976;51.694;6.256;2023-05-14T00:03:40;11.70;;;7.53;;
3922;SDS011;1976;51.694;6.256;2023-05-14T00:06:06;8.20;;;7.20;;
3922;SDS011;1976;51.694;6.256;2023-05-14T00:08:33;9.43;;;7.70;;
3922;SDS011;1976;51.694;6.256;2023-05-14T00:10:59;14.80;;;7.40;;
3922;SDS011;1976;51.694;6.256;2023-05-14T00:13:25;9.70;;;7.63;;
3922;SDS011;1976;51.694;6.256;2023-05-14T00:15:51;18.73;;;8.60;;
3922;SDS011;1976;51.694;6.256;2023-05-14T00:18:16;10.80;;;8.30;;
3922;SDS011;1976;51.694;6.256;2023-05-14T00:20:42;9.77;;;8.40;;
3922;SDS011;1976;51.694;6.256;2023-05-14T00:23:08;9.03;;;7.97;;
3922;SDS011;1976;51.694;6.256;2023-05-14T00:25:33;16.87;;;8.80;;
3922;SDS011;1976;51.694;6.256;2023-05-14T00:27:59;18.80;;;7.93;;
3922;SDS011;1976;51.694;6.256;2023-05-14T00:30:25;12.50;;;9.33;;
3922;SDS011;1976;51.694;6.256;2023-05-14T00:32:51;15.17;;;7.80;;
3922;SDS011;1976;51.694;6.256;2023-05-14T00:35:16;10.20;;;8.43;;
3922;SDS011;1976;51.694;6.256;2023-05-14T00:37:44;14.60;;;9.23;;
3922;SDS011;1976;51.694;6.256;2023-05-14T00:40:10;10.10;;;7.93;;
3922;SDS011;1976;51.694;6.256;2023-05-14T00:42:37;12.93;;;8.43;;
3922;SDS011;1976;51.694;6.256;2023-05-14T00:45:05;17.03;;;9.87;;
3922;SDS011;1976;51.694;6.256;2023-05-14T00:47:31;14.83;;;10.83;;
3922;SDS011;1976;51.694;6.256;2023-05-14T00:50:01;12.87;;;10.33;;
3922;SDS011;1976;51.694;6.256;2023-05-14T00:52:27;12.33;;;10.47;;
3922;SDS011;1976;51.694;6.256;2023-05-14T00:54:53;15.23;;;9.20;;
3922;SDS011;1976;51.694;6.256;2023-05-14T00:57:19;15.23;;;9.20;;
3922;SDS011;1976;51.694;6.256;2023-05-14T00:59:46;16.73;;;9.63;;
3922;SDS011;1976;51.694;6.256;2023-05-14T01:02:11;15.20;;;9.90;;
3922;SDS011;1976;51.694;6.256;2023-05-14T01:04:37;12.23;;;9.10;;
3922;SDS011;1976;51.694;6.256;2023-05-14T01:09:36;14.07;;;8.63;;
3922;SDS011;1976;51.694;6.256;2023-05-14T01:12:11;16.03;;;9.60;;
3922;SDS011;1976;51.694;6.256;2023-05-14T01:15:40;14.07;;;9.97;;
3922;SDS011;1976;51.694;6.256;2023-05-14T01:18:05;15.93;;;10.00;;
3922;SDS011;1976;51.694;6.256;2023-05-14T01:20:32;10.70;;;9.10;;
3922;SDS011;1976;51.694;6.256;2023-05-14T01:22:58;14.53;;;10.40;;
3922;SDS011;1976;51.694;6.256;2023-05-14T01:25:24;10.73;;;9.23;;
3922;SDS011;1976;51.694;6.256;2023-05-14T01:30:42;13.67;;;10.77;;
3922;SDS011;1976;51.694;6.256;2023-05-14T01:33:13;11.87;;;10.20;;
3922;SDS011;1976;51.694;6.256;2023-05-14T01:35:42;18.33;;;9.73;;
3922;SDS011;1976;51.694;6.256;2023-05-14T01:38:13;12.50;;;10.20;;
3922;SDS011;1976;51.694;6.256;2023-05-14T01:40:41;14.23;;;10.57;;
3922;SDS011;1976;51.694;6.256;2023-05-14T01:43:09;15.00;;;10.67;;
3922;SDS011;1976;51.694;6.256;2023-05-14T01:45:35;11.57;;;10.13;;
3922;SDS011;1976;51.694;6.256;2023-05-14T01:48:01;16.30;;;10.33;;
3922;SDS011;1976;51.694;6.256;2023-05-14T01:50:28;12.80;;;10.43;;
3922;SDS011;1976;51.694;6.256;2023-05-14T01:52:53;14.73;;;10.13;;
3922;SDS011;1976;51.694;6.256;2023-05-14T01:55:20;12.97;;;11.20;;
3922;SDS011;1976;51.694;6.256;2023-05-14T01:57:48;13.67;;;9.97;;
3922;SDS011;1976;51.694;6.256;2023-05-14T02:00:14;13.23;;;10.60;;
3922;SDS011;1976;51.694;6.256;2023-05-14T02:02:40;15.67;;;11.37;;
3922;SDS011;1976;51.694;6.256;2023-05-14T02:05:06;19.90;;;11.10;;
3922;SDS011;1976;51.694;6.256;2023-05-14T02:07:32;18.20;;;11.50;;
3922;SDS011;1976;51.694;6.256;2023-05-14T02:09:58;24.73;;;11.50;;
3922;SDS011;1976;51.694;6.256;2023-05-14T02:12:23;15.30;;;11.97;;
3922;SDS011;1976;51.694;6.256;2023-05-14T02:14:50;17.17;;;11.03;;
3922;SDS011;1976;51.694;6.256;2023-05-14T02:17:16;17.03;;;12.87;;
3922;SDS011;1976;51.694;6.256;2023-05-14T02:19:45;15.97;;;12.00;;
3922;SDS011;1976;51.694;6.256;2023-05-14T02:22:11;13.53;;;12.10;;
3922;SDS011;1976;51.694;6.256;2023-05-14T02:24:37;17.90;;;11.87;;
3922;SDS011;1976;51.694;6.256;2023-05-14T02:27:03;15.40;;;12.50;;
3922;SDS011;1976;51.694;6.256;2023-05-14T02:29:29;15.50;;;11.43;;
3922;SDS011;1976;51.694;6.256;2023-05-14T02:31:54;21.90;;;12.17;;
3922;SDS011;1976;51.694;6.256;2023-05-14T02:34:20;18.37;;;13.97;;
3922;SDS011;1976;51.694;6.256;2023-05-14T02:36:46;16.40;;;12.77;;
3922;SDS011;1976;51.694;6.256;2023-05-14T02:39:12;17.50;;;12.43;;
3922;SDS011;1976;51.694;6.256;2023-05-14T02:41:37;22.30;;;15.67;;
3922;SDS011;1976;51.694;6.256;2023-05-14T02:44:03;31.87;;;13.10;;
3922;SDS011;1976;51.694;6.256;2023-05-14T02:46:29;19.27;;;13.90;;
3922;SDS011;1976;51.694;6.256;2023-05-14T02:48:55;19.00;;;12.90;;
3922;SDS011;1976;51.694;6.256;2023-05-14T02:51:21;16.80;;;13.80;;
3922;SDS011;1976;51.694;6.256;2023-05-14T02:53:47;19.00;;;13.23;;
3922;SDS011;1976;51.694;6.256;2023-05-14T02:56:13;21.60;;;13.53;;
3922;SDS011;1976;51.694;6.256;2023-05-14T02:58:38;21.43;;;15.10;;
3922;SDS011;1976;51.694;6.256;2023-05-14T03:01:04;19.80;;;14.47;;
3922;SDS011;1976;51.694;6.256;2023-05-14T03:03:30;15.70;;;13.20;;
3922;SDS011;1976;51.694;6.256;2023-05-14T03:05:56;19.73;;;14.20;;
3922;SDS011;1976;51.694;6.256;2023-05-14T03:08:21;22.40;;;15.70;;
3922;SDS011;1976;51.694;6.256;2023-05-14T03:10:47;19.67;;;15.07;;
3922;SDS011;1976;51.694;6.256;2023-05-14T03:13:13;18.20;;;14.90;;
3922;SDS011;1976;51.694;6.256;2023-05-14T03:15:42;21.40;;;14.77;;
3922;SDS011;1976;51.694;6.256;2023-05-14T03:18:08;21.63;;;15.27;;
3922;SDS011;1976;51.694;6.256;2023-05-14T03:20:33;16.60;;;14.13;;
3922;SDS011;1976;51.694;6.256;2023-05-14T03:22:59;21.93;;;15.07;;
3922;SDS011;1976;51.694;6.256;2023-05-14T03:25:25;19.67;;;14.77;;
3922;SDS011;1976;51.694;6.256;2023-05-14T03:27:51;19.17;;;14.63;;
3922;SDS011;1976;51.694;6.256;2023-05-14T03:30:16;22.70;;;13.97;;
3922;SDS011;1976;51.694;6.256;2023-05-14T03:32:42;19.53;;;15.17;;
3922;SDS011;1976;51.694;6.256;2023-05-14T03:35:08;18.37;;;14.67;;
3922;SDS011;1976;51.694;6.256;2023-05-14T03:37:34;23.77;;;14.57;;
3922;SDS011;1976;51.694;6.256;2023-05-14T03:40:00;30.03;;;14.70;;
3922;SDS011;1976;51.694;6.256;2023-05-14T03:42:26;22.23;;;14.67;;
3922;SDS011;1976;51.694;6.256;2023-05-14T03:44:52;24.40;;;16.57;;
3922;SDS011;1976;51.694;6.256;2023-05-14T03:47:17;19.63;;;15.57;;
3922;SDS011;1976;51.694;6.256;2023-05-14T03:49:43;20.00;;;14.90;;
3922;SDS011;1976;51.694;6.256;2023-05-14T03:52:10;21.13;;;15.40;;
3922;SDS011;1976;51.694;6.256;2023-05-14T03:54:36;25.07;;;16.00;;
3922;SDS011;1976;51.694;6.256;2023-05-14T03:57:02;25.60;;;16.87;;
3922;SDS011;1976;51.694;6.256;2023-05-14T03:59:28;21.33;;;16.20;;
3922;SDS011;1976;51.694;6.256;2023-05-14T04:01:54;21.97;;;15.63;;
3922;SDS011;1976;51.694;6.256;2023-05-14T04:04:20;20.00;;;15.67;;
3922;SDS011;1976;51.694;6.256;2023-05-14T04:06:45;28.00;;;16.03;;
3922;SDS011;1976;51.694;6.256;2023-05-14T04:09:11;23.43;;;16.80;;
3922;SDS011;1976;51.694;6.256;2023-05-14T04:11:37;18.77;;;15.23;;
3922;SDS011;1976;51.694;6.256;2023-05-14T04:14:02;20.60;;;15.97;;
3922;SDS011;1976;51.694;6.256;2023-05-14T04:16:28;19.43;;;14.37;;
3922;SDS011;1976;51.694;6.256;2023-05-14T04:18:54;26.97;;;16.47;;
3922;SDS011;1976;51.694;6.256;2023-05-14T04:21:19;24.67;;;15.80;;
3922;SDS011;1976;51.694;6.256;2023-05-14T04:23:45;17.73;;;14.73;;
3922;SDS011;1976;51.694;6.256;2023-05-14T04:26:10;26.43;;;16.90;;
3922;SDS011;1976;51.694;6.256;2023-05-14T04:28:36;21.23;;;16.40;;
3922;SDS011;1976;51.694;6.256;2023-05-14T04:31:02;26.80;;;15.33;;
3922;SDS011;1976;51.694;6.256;2023-05-14T04:33:27;20.13;;;16.07;;
3922;SDS011;1976;51.694;6.256;2023-05-14T04:35:53;21.33;;;15.70;;
3922;SDS011;1976;51.694;6.256;2023-05-14T04:38:20;19.20;;;15.07;;
3922;SDS011;1976;51.694;6.256;2023-05-14T04:40:47;31.23;;;15.80;;
3922;SDS011;1976;51.694;6.256;2023-05-14T04:43:12;21.10;;;15.60;;
3922;SDS011;1976;51.694;6.256;2023-05-14T04:45:38;19.80;;;15.10;;
3922;SDS011;1976;51.694;6.256;2023-05-14T04:48:04;26.40;;;18.67;;
3922;SDS011;1976;51.694;6.256;2023-05-14T04:50:32;25.53;;;16.10;;
3922;SDS011;1976;51.694;6.256;2023-05-14T04:52:58;17.43;;;14.87;;
3922;SDS011;1976;51.694;6.256;2023-05-14T04:55:24;24.87;;;16.20;;
3922;SDS011;1976;51.694;6.256;2023-05-14T04:57:49;24.90;;;15.70;;
3922;SDS011;1976;51.694;6.256;2023-05-14T05:00:15;25.60;;;15.60;;
3922;SDS011;1976;51.694;6.256;2023-05-14T05:02:41;32.23;;;16.80;;
3922;SDS011;1976;51.694;6.256;2023-05-14T05:05:07;21.30;;;16.10;;
3922;SDS011;1976;51.694;6.256;2023-05-14T05:07:33;31.50;;;16.17;;
3922;SDS011;1976;51.694;6.256;2023-05-14T05:09:59;18.73;;;15.50;;
3922;SDS011;1976;51.694;6.256;2023-05-14T05:12:25;23.13;;;16.77;;
3922;SDS011;1976;51.694;6.256;2023-05-14T05:14:54;25.73;;;14.30;;
3922;SDS011;1976;51.694;6.256;2023-05-14T05:17:23;26.93;;;15.30;;
3922;SDS011;1976;51.694;6.256;2023-05-14T05:19:49;27.23;;;16.80;;
3922;SDS011;1976;51.694;6.256;2023-05-14T05:22:15;32.13;;;15.93;;
3922;SDS011;1976;51.694;6.256;2023-05-14T05:24:40;21.50;;;15.53;;
3922;SDS011;1976;51.694;6.256;2023-05-14T05:27:06;24.20;;;16.77;;
3922;SDS011;1976;51.694;6.256;2023-05-14T05:29:33;28.87;;;15.73;;
3922;SDS011;1976;51.694;6.256;2023-05-14T05:31:59;38.47;;;14.20;;
3922;SDS011;1976;51.694;6.256;2023-05-14T05:34:25;23.53;;;15.10;;
3922;SDS011;1976;51.694;6.256;2023-05-14T05:36:51;24.23;;;16.47;;
3922;SDS011;1976;51.694;6.256;2023-05-14T05:39:17;24.23;;;15.47;;
3922;SDS011;1976;51.694;6.256;2023-05-14T05:41:42;19.83;;;14.90;;
3922;SDS011;1976;51.694;6.256;2023-05-14T05:44:08;20.27;;;15.50;;
3922;SDS011;1976;51.694;6.256;2023-05-14T05:46:34;20.50;;;14.53;;
3922;SDS011;1976;51.694;6.256;2023-05-14T05:48:59;22.30;;;16.67;;
3922;SDS011;1976;51.694;6.256;2023-05-14T05:51:25;22.80;;;15.23;;
3922;SDS011;1976;51.694;6.256;2023-05-14T05:53:51;25.13;;;15.20;;
3922;SDS011;1976;51.694;6.256;2023-05-14T05:56:16;18.97;;;14.50;;
3922;SDS011;1976;51.694;6.256;2023-05-14T05:58:42;19.47;;;14.90;;
3922;SDS011;1976;51.694;6.256;2023-05-14T06:01:08;19.03;;;15.17;;
3922;SDS011;1976;51.694;6.256;2023-05-14T06:03:33;21.27;;;14.53;;
3922;SDS011;1976;51.694;6.256;2023-05-14T06:05:59;22.33;;;14.37;;
3922;SDS011;1976;51.694;6.256;2023-05-14T06:08:25;18.43;;;15.00;;
3922;SDS011;1976;51.694;6.256;2023-05-14T06:10:50;23.97;;;15.30;;
3922;SDS011;1976;51.694;6.256;2023-05-14T06:13:16;19.10;;;15.80;;
3922;SDS011;1976;51.694;6.256;2023-05-14T06:15:42;24.73;;;13.60;;
3922;SDS011;1976;51.694;6.256;2023-05-14T06:18:07;22.53;;;15.03;;
3922;SDS011;1976;51.694;6.256;2023-05-14T06:20:33;21.10;;;15.40;;
3922;SDS011;1976;51.694;6.256;2023-05-14T06:22:59;18.07;;;15.27;;
3922;SDS011;1976;51.694;6.256;2023-05-14T06:25:24;25.33;;;15.10;;
3922;SDS011;1976;51.694;6.256;2023-05-14T06:27:50;22.63;;;14.80;;
3922;SDS011;1976;51.694;6.256;2023-05-14T06:30:16;29.67;;;14.77;;
3922;SDS011;1976;51.694;6.256;2023-05-14T06:32:41;24.73;;;14.97;;
3922;SDS011;1976;51.694;6.256;2023-05-14T06:35:07;23.00;;;14.40;;
3922;SDS011;1976;51.694;6.256;2023-05-14T06:37:33;35.33;;;14.50;;
3922;SDS011;1976;51.694;6.256;2023-05-14T06:39:59;16.57;;;13.30;;
3922;SDS011;1976;51.694;6.256;2023-05-14T06:42:25;19.17;;;13.90;;
3922;SDS011;1976;51.694;6.256;2023-05-14T06:44:50;20.70;;;14.97;;
3922;SDS011;1976;51.694;6.256;2023-05-14T06:47:16;20.60;;;14.17;;
3922;SDS011;1976;51.694;6.256;2023-05-14T06:49:42;24.03;;;13.63;;
3922;SDS011;1976;51.694;6.256;2023-05-14T06:52:07;20.60;;;14.70;;
3922;SDS011;1976;51.694;6.256;2023-05-14T06:54:33;24.37;;;13.20;;
3922;SDS011;1976;51.694;6.256;2023-05-14T06:56:59;20.67;;;13.23;;
3922;SDS011;1976;51.694;6.256;2023-05-14T06:59:24;34.30;;;13.83;;
3922;SDS011;1976;51.694;6.256;2023-05-14T07:01:50;17.87;;;13.27;;
3922;SDS011;1976;51.694;6.256;2023-05-14T07:04:16;20.60;;;14.70;;
3922;SDS011;1976;51.694;6.256;2023-05-14T07:06:41;20.30;;;13.23;;
3922;SDS011;1976;51.694;6.256;2023-05-14T07:09:07;20.83;;;13.87;;
3922;SDS011;1976;51.694;6.256;2023-05-14T07:11:32;17.10;;;13.10;;
3922;SDS011;1976;51.694;6.256;2023-05-14T07:13:58;25.93;;;13.27;;
3922;SDS011;1976;51.694;6.256;2023-05-14T07:16:25;15.97;;;13.43;;
3922;SDS011;1976;51.694;6.256;2023-05-14T07:18:50;20.93;;;12.30;;
3922;SDS011;1976;51.694;6.256;2023-05-14T07:21:16;17.80;;;12.87;;
3922;SDS011;1976;51.694;6.256;2023-05-14T07:23:42;18.90;;;11.80;;
3922;SDS011;1976;51.694;6.256;2023-05-14T07:26:07;18.17;;;13.13;;
3922;SDS011;1976;51.694;6.256;2023-05-14T07:28:33;18.53;;;12.83;;
3922;SDS011;1976;51.694;6.256;2023-05-14T07:30:59;22.13;;;12.80;;
3922;SDS011;1976;51.694;6.256;2023-05-14T07:33:25;23.07;;;13.83;;
3922;SDS011;1976;51.694;6.256;2023-05-14T07:35:51;27.07;;;14.00;;
3922;SDS011;1976;51.694;6.256;2023-05-14T07:38:18;21.17;;;12.70;;
3922;SDS011;1976;51.694;6.256;2023-05-14T07:40:44;30.37;;;13.23;;
3922;SDS011;1976;51.694;6.256;2023-05-14T07:43:10;14.17;;;11.77;;
3922;SDS011;1976;51.694;6.256;2023-05-14T07:45:36;15.57;;;12.10;;
3922;SDS011;1976;51.694;6.256;2023-05-14T07:48:03;18.93;;;12.47;;
3922;SDS011;1976;51.694;6.256;2023-05-14T07:50:29;20.60;;;12.43;;
3922;SDS011;1976;51.694;6.256;2023-05-14T07:52:55;20.10;;;12.10;;
3922;SDS011;1976;51.694;6.256;2023-05-14T07:55:21;16.97;;;10.47;;
3922;SDS011;1976;51.694;6.256;2023-05-14T07:57:47;18.33;;;11.40;;
3922;SDS011;1976;51.694;6.256;2023-05-14T08:00:12;17.63;;;10.23;;
3922;SDS011;1976;51.694;6.256;2023-05-14T08:02:39;14.83;;;11.87;;
3922;SDS011;1976;51.694;6.256;2023-05-14T08:05:06;22.00;;;11.93;;
3922;SDS011;1976;51.694;6.256;2023-05-14T08:07:33;15.53;;;10.80;;
3922;SDS011;1976;51.694;6.256;2023-05-14T08:09:58;23.90;;;11.90;;
3922;SDS011;1976;51.694;6.256;2023-05-14T08:12:24;15.43;;;11.23;;
3922;SDS011;1976;51.694;6.256;2023-05-14T08:14:50;22.87;;;11.07;;
3922;SDS011;1976;51.694;6.256;2023-05-14T08:17:16;17.90;;;10.40;;
3922;SDS011;1976;51.694;6.256;2023-05-14T08:19:42;10.80;;;9.13;;
3922;SDS011;1976;51.694;6.256;2023-05-14T08:22:07;14.50;;;9.13;;
3922;SDS011;1976;51.694;6.256;2023-05-14T08:24:33;14.70;;;9.77;;
3922;SDS011;1976;51.694;6.256;2023-05-14T08:26:59;17.60;;;9.63;;
3922;SDS011;1976;51.694;6.256;2023-05-14T08:29:24;11.50;;;9.10;;
3922;SDS011;1976;51.694;6.256;2023-05-14T08:31:50;15.63;;;9.50;;
3922;SDS011;1976;51.694;6.256;2023-05-14T08:34:16;14.73;;;9.93;;
3922;SDS011;1976;51.694;6.256;2023-05-14T08:36:42;12.40;;;8.90;;
3922;SDS011;1976;51.694;6.256;2023-05-14T08:39:07;14.10;;;7.73;;
3922;SDS011;1976;51.694;6.256;2023-05-14T08:41:33;10.40;;;7.77;;
3922;SDS011;1976;51.694;6.256;2023-05-14T08:44:08;9.43;;;8.20;;
3922;SDS011;1976;51.694;6.256;2023-05-14T08:46:37;7.93;;;7.10;;
3922;SDS011;1976;51.694;6.256;2023-05-14T08:49:07;12.20;;;7.17;;
3922;SDS011;1976;51.694;6.256;2023-05-14T08:51:40;8.93;;;7.40;;
3922;SDS011;1976;51.694;6.256;2023-05-14T08:54:07;12.47;;;8.17;;
3922;SDS011;1976;51.694;6.256;2023-05-14T08:56:38;15.20;;;8.20;;
3922;SDS011;1976;51.694;6.256;2023-05-14T08:59:05;9.70;;;8.03;;
3922;SDS011;1976;51.694;6.256;2023-05-14T09:01:31;15.50;;;7.93;;
3922;SDS011;1976;51.694;6.256;2023-05-14T09:03:57;8.97;;;6.73;;
3922;SDS011;1976;51.694;6.256;2023-05-14T09:06:25;9.37;;;6.40;;
3922;SDS011;1976;51.694;6.256;2023-05-14T09:08:52;7.37;;;6.17;;
3922;SDS011;1976;51.694;6.256;2023-05-14T09:11:18;10.60;;;8.70;;
3922;SDS011;1976;51.694;6.256;2023-05-14T09:13:44;10.63;;;8.80;;
3922;SDS011;1976;51.694;6.256;2023-05-14T09:16:09;10.50;;;7.47;;
3922;SDS011;1976;51.694;6.256;2023-05-14T09:18:35;11.53;;;7.37;;
3922;SDS011;1976;51.694;6.256;2023-05-14T09:21:01;10.90;;;6.60;;
3922;SDS011;1976;51.694;6.256;2023-05-14T09:23:29;11.23;;;6.87;;
3922;SDS011;1976;51.694;6.256;2023-05-14T09:25:57;8.17;;;6.83;;
3922;SDS011;1976;51.694;6.256;2023-05-14T09:28:23;10.60;;;6.80;;
3922;SDS011;1976;51.694;6.256;2023-05-14T09:30:52;7.63;;;6.47;;
3922;SDS011;1976;51.694;6.256;2023-05-14T09:33:27;14.27;;;6.90;;
3922;SDS011;1976;51.694;6.256;2023-05-14T09:35:57;7.73;;;6.40;;
3922;SDS011;1976;51.694;6.256;2023-05-14T09:38:30;15.77;;;6.10;;
3922;SDS011;1976;51.694;6.256;2023-05-14T09:40:57;27.63;;;5.87;;
3922;SDS011;1976;51.694;6.256;2023-05-14T09:43:23;8.73;;;6.37;;
3922;SDS011;1976;51.694;6.256;2023-05-14T09:45:50;6.50;;;5.67;;
3922;SDS011;1976;51.694;6.256;2023-05-14T09:48:16;7.50;;;5.80;;
3922;SDS011;1976;51.694;6.256;2023-05-14T09:50:43;6.97;;;5.67;;
3922;SDS011;1976;51.694;6.256;2023-05-14T09:53:10;7.07;;;5.50;;
3922;SDS011;1976;51.694;6.256;2023-05-14T09:55:36;5.23;;;4.73;;
3922;SDS011;1976;51.694;6.256;2023-05-14T09:58:03;11.43;;;5.00;;
3922;SDS011;1976;51.694;6.256;2023-05-14T10:00:30;5.67;;;5.23;;
3922;SDS011;1976;51.694;6.256;2023-05-14T10:02:57;8.13;;;6.00;;
3922;SDS011;1976;51.694;6.256;2023-05-14T10:05:23;6.53;;;5.60;;
3922;SDS011;1976;51.694;6.256;2023-05-14T10:07:51;11.43;;;4.80;;
3922;SDS011;1976;51.694;6.256;2023-05-14T10:10:22;5.57;;;4.97;;
3922;SDS011;1976;51.694;6.256;2023-05-14T10:12:52;5.10;;;4.60;;
3922;SDS011;1976;51.694;6.256;2023-05-14T10:15:38;10.00;;;3.90;;
3922;SDS011;1976;51.694;6.256;2023-05-14T10:18:12;4.53;;;3.60;;
3922;SDS011;1976;51.694;6.256;2023-05-14T10:20:44;4.50;;;4.10;;
3922;SDS011;1976;51.694;6.256;2023-05-14T10:23:12;7.13;;;4.70;;
3922;SDS011;1976;51.694;6.256;2023-05-14T10:25:38;4.83;;;4.33;;
3922;SDS011;1976;51.694;6.256;2023-05-14T10:28:04;4.13;;;3.40;;
3922;SDS011;1976;51.694;6.256;2023-05-14T10:30:30;5.97;;;3.70;;
3922;SDS011;1976;51.694;6.256;2023-05-14T10:33:06;4.60;;;3.50;;
3922;SDS011;1976;51.694;6.256;2023-05-14T10:35:49;2.97;;;2.80;;
3922;SDS011;1976;51.694;6.256;2023-05-14T10:38:15;4.70;;;3.00;;
3922;SDS011;1976;51.694;6.256;2023-05-14T10:40:41;5.03;;;3.77;;
3922;SDS011;1976;51.694;6.256;2023-05-14T10:43:06;3.47;;;3.17;;
3922;SDS011;1976;51.694;6.256;2023-05-14T10:45:35;5.27;;;3.00;;
3922;SDS011;1976;51.694;6.256;2023-05-14T10:48:00;12.03;;;3.20;;
3922;SDS011;1976;51.694;6.256;2023-05-14T10:50:26;12.57;;;3.83;;
3922;SDS011;1976;51.694;6.256;2023-05-14T10:52:53;3.03;;;2.70;;
3922;SDS011;1976;51.694;6.256;2023-05-14T10:55:19;3.40;;;3.10;;
3922;SDS011;1976;51.694;6.256;2023-05-14T10:57:45;3.47;;;3.10;;
3922;SDS011;1976;51.694;6.256;2023-05-14T11:00:12;3.50;;;3.10;;
3922;SDS011;1976;51.694;6.256;2023-05-14T11:02:39;2.60;;;2.37;;
3922;SDS011;1976;51.694;6.256;2023-05-14T11:10:03;2.90;;;2.70;;
3922;SDS011;1976;51.694;6.256;2023-05-14T11:12:31;3.40;;;3.03;;
3922;SDS011;1976;51.694;6.256;2023-05-14T11:14:58;3.00;;;2.80;;
3922;SDS011;1976;51.694;6.256;2023-05-14T11:17:26;2.57;;;2.20;;
3922;SDS011;1976;51.694;6.256;2023-05-14T11:19:54;2.87;;;2.47;;
3922;SDS011;1976;51.694;6.256;2023-05-14T11:22:20;2.50;;;2.20;;
3922;SDS011;1976;51.694;6.256;2023-05-14T11:24:46;2.17;;;2.03;;
3922;SDS011;1976;51.694;6.256;2023-05-14T11:27:12;2.03;;;1.90;;
3922;SDS011;1976;51.694;6.256;2023-05-14T11:29:39;3.27;;;1.70;;
3922;SDS011;1976;51.694;6.256;2023-05-14T11:32:09;2.27;;;2.00;;
3922;SDS011;1976;51.694;6.256;2023-05-14T11:34:35;2.47;;;2.27;;
3922;SDS011;1976;51.694;6.256;2023-05-14T11:37:04;2.40;;;2.30;;
3922;SDS011;1976;51.694;6.256;2023-05-14T11:39:31;2.37;;;2.27;;
3922;SDS011;1976;51.694;6.256;2023-05-14T11:42:18;2.53;;;2.43;;
3922;SDS011;1976;51.694;6.256;2023-05-14T11:44:47;2.53;;;2.33;;
3922;SDS011;1976;51.694;6.256;2023-05-14T11:47:15;2.87;;;2.30;;
3922;SDS011;1976;51.694;6.256;2023-05-14T11:49:42;4.10;;;2.53;;
3922;SDS011;1976;51.694;6.256;2023-05-14T11:52:08;1.80;;;1.70;;
3922;SDS011;1976;51.694;6.256;2023-05-14T11:54:36;2.20;;;1.73;;
3922;SDS011;1976;51.694;6.256;2023-05-14T11:59:56;7.30;;;1.90;;
3922;SDS011;1976;51.694;6.256;2023-05-14T12:02:22;1.63;;;1.53;;
3922;SDS011;1976;51.694;6.256;2023-05-14T12:04:52;2.20;;;2.00;;
3922;SDS011;1976;51.694;6.256;2023-05-14T12:07:17;1.73;;;1.40;;
3922;SDS011;1976;51.694;6.256;2023-05-14T12:09:47;2.27;;;1.47;;
3922;SDS011;1976;51.694;6.256;2023-05-14T12:12:13;4.60;;;2.00;;
3922;SDS011;1976;51.694;6.256;2023-05-14T12:14:43;5.63;;;2.47;;
3922;SDS011;1976;51.694;6.256;2023-05-14T12:17:13;2.17;;;1.70;;
3922;SDS011;1976;51.694;6.256;2023-05-14T12:19:41;1.60;;;1.50;;
3922;SDS011;1976;51.694;6.256;2023-05-14T12:22:08;1.60;;;1.50;;
3922;SDS011;1976;51.694;6.256;2023-05-14T12:24:35;4.37;;;1.30;;
3922;SDS011;1976;51.694;6.256;2023-05-14T12:27:01;4.23;;;1.43;;
3922;SDS011;1976;51.694;6.256;2023-05-14T12:29:27;1.60;;;1.50;;
3922;SDS011;1976;51.694;6.256;2023-05-14T12:31:55;10.00;;;1.43;;
3922;SDS011;1976;51.694;6.256;2023-05-14T12:34:22;12.53;;;1.40;;
3922;SDS011;1976;51.694;6.256;2023-05-14T12:36:47;4.37;;;1.63;;
3922;SDS011;1976;51.694;6.256;2023-05-14T12:39:13;1.43;;;1.33;;
3922;SDS011;1976;51.694;6.256;2023-05-14T12:41:39;1.23;;;1.23;;
3922;SDS011;1976;51.694;6.256;2023-05-14T12:44:05;3.67;;;1.37;;
3922;SDS011;1976;51.694;6.256;2023-05-14T12:46:31;2.90;;;1.50;;
3922;SDS011;1976;51.694;6.256;2023-05-14T12:48:58;1.20;;;1.20;;
3922;SDS011;1976;51.694;6.256;2023-05-14T12:51:23;1.83;;;1.20;;
3922;SDS011;1976;51.694;6.256;2023-05-14T12:53:50;10.23;;;2.07;;
3922;SDS011;1976;51.694;6.256;2023-05-14T12:56:18;7.57;;;1.50;;
3922;SDS011;1976;51.694;6.256;2023-05-14T12:58:44;5.53;;;1.77;;
3922;SDS011;1976;51.694;6.256;2023-05-14T13:01:10;3.40;;;1.20;;
3922;SDS011;1976;51.694;6.256;2023-05-14T13:03:36;1.40;;;1.03;;
3922;SDS011;1976;51.694;6.256;2023-05-14T13:06:02;1.50;;;1.40;;
3922;SDS011;1976;51.694;6.256;2023-05-14T13:08:28;1.43;;;1.27;;
3922;SDS011;1976;51.694;6.256;2023-05-14T13:10:54;2.80;;;1.60;;
3922;SDS011;1976;51.694;6.256;2023-05-14T13:13:20;2.33;;;1.47;;
3922;SDS011;1976;51.694;6.256;2023-05-14T13:15:47;3.07;;;1.63;;
3922;SDS011;1976;51.694;6.256;2023-05-14T13:18:13;6.40;;;1.60;;
3922;SDS011;1976;51.694;6.256;2023-05-14T13:20:40;2.20;;;2.10;;
3922;SDS011;1976;51.694;6.256;2023-05-14T13:23:06;1.50;;;1.40;;
3922;SDS011;1976;51.694;6.256;2023-05-14T13:25:31;3.67;;;2.00;;
3922;SDS011;1976;51.694;6.256;2023-05-14T13:27:57;3.00;;;1.50;;
3922;SDS011;1976;51.694;6.256;2023-05-14T13:30:23;1.60;;;1.50;;
3922;SDS011;1976;51.694;6.256;2023-05-14T13:32:48;3.37;;;1.50;;
3922;SDS011;1976;51.694;6.256;2023-05-14T13:35:15;5.50;;;1.93;;
3922;SDS011;1976;51.694;6.256;2023-05-14T13:37:43;3.67;;;1.60;;
3922;SDS011;1976;51.694;6.256;2023-05-14T13:40:09;5.33;;;1.67;;
3922;SDS011;1976;51.694;6.256;2023-05-14T13:42:36;3.83;;;1.60;;
3922;SDS011;1976;51.694;6.256;2023-05-14T13:45:03;1.70;;;1.60;;
3922;SDS011;1976;51.694;6.256;2023-05-14T13:47:30;3.30;;;2.20;;
3922;SDS011;1976;51.694;6.256;2023-05-14T13:49:56;1.50;;;1.40;;
3922;SDS011;1976;51.694;6.256;2023-05-14T13:52:22;4.10;;;1.63;;
3922;SDS011;1976;51.694;6.256;2023-05-14T13:54:48;2.97;;;1.70;;
3922;SDS011;1976;51.694;6.256;2023-05-14T13:57:14;2.13;;;1.40;;
3922;SDS011;1976;51.694;6.256;2023-05-14T13:59:40;5.70;;;1.60;;
3922;SDS011;1976;51.694;6.256;2023-05-14T14:02:06;1.57;;;1.47;;
3922;SDS011;1976;51.694;6.256;2023-05-14T14:04:32;4.20;;;1.70;;
3922;SDS011;1976;51.694;6.256;2023-05-14T14:06:58;4.20;;;1.70;;
3922;SDS011;1976;51.694;6.256;2023-05-14T14:09:24;5.10;;;1.30;;
3922;SDS011;1976;51.694;6.256;2023-05-14T14:11:50;2.90;;;2.00;;
3922;SDS011;1976;51.694;6.256;2023-05-14T14:14:16;2.77;;;1.90;;
3922;SDS011;1976;51.694;6.256;2023-05-14T14:16:43;2.10;;;1.83;;
3922;SDS011;1976;51.694;6.256;2023-05-14T14:19:08;4.23;;;1.90;;
3922;SDS011;1976;51.694;6.256;2023-05-14T14:21:34;7.53;;;3.03;;
3922;SDS011;1976;51.694;6.256;2023-05-14T14:24:03;3.00;;;2.67;;
3922;SDS011;1976;51.694;6.256;2023-05-14T14:26:30;5.63;;;2.17;;
3922;SDS011;1976;51.694;6.256;2023-05-14T14:28:55;2.83;;;2.57;;
3922;SDS011;1976;51.694;6.256;2023-05-14T14:31:22;3.60;;;2.70;;
3922;SDS011;1976;51.694;6.256;2023-05-14T14:33:48;24.73;;;1.97;;
3922;SDS011;1976;51.694;6.256;2023-05-14T14:36:14;6.20;;;2.67;;
3922;SDS011;1976;51.694;6.256;2023-05-14T14:38:40;4.53;;;2.70;;
3922;SDS011;1976;51.694;6.256;2023-05-14T14:41:06;2.23;;;2.03;;
3922;SDS011;1976;51.694;6.256;2023-05-14T14:43:33;3.63;;;2.50;;
3922;SDS011;1976;51.694;6.256;2023-05-14T14:45:59;11.33;;;2.10;;
3922;SDS011;1976;51.694;6.256;2023-05-14T14:51:04;4.07;;;2.37;;
3922;SDS011;1976;51.694;6.256;2023-05-14T14:53:31;4.20;;;2.70;;
3922;SDS011;1976;51.694;6.256;2023-05-14T14:55:57;9.10;;;2.50;;
3922;SDS011;1976;51.694;6.256;2023-05-14T14:58:24;13.40;;;2.40;;
3922;SDS011;1976;51.694;6.256;2023-05-14T15:00:54;6.23;;;2.77;;
3922;SDS011;1976;51.694;6.256;2023-05-14T15:03:21;2.93;;;2.30;;
3922;SDS011;1976;51.694;6.256;2023-05-14T15:05:47;7.17;;;3.23;;
3922;SDS011;1976;51.694;6.256;2023-05-14T15:08:13;2.70;;;2.50;;
3922;SDS011;1976;51.694;6.256;2023-05-14T15:10:40;2.73;;;2.53;;
3922;SDS011;1976;51.694;6.256;2023-05-14T15:13:06;9.80;;;2.87;;